Cisne Branco — PWCB — position and weather

sailwx.info

Track history (hours):
 
Tides and Currents Weather Stations Pressure Air Temp Water Temp Dewpoint Dewpoint Depression Visibility Wind Speed Wind Dir Waves Ship Positions

Cisne Branco (Brazil)

Last reported at 2017-Apr-24 00:49 UTC. Time now 2017-Apr-26 15:33 UTC.
Position S 00°17' W 047°49'.

Length 78 m; draft 4.8 m.

Type: Sailing vessel. MMSI: 710428000.

Date/timePositionNaut miles runAvg speedWind from/ knotsBaromVisibWave heightAir tempDewpointWater temp
2017-Apr-24 00:49S 00°17' W 047°49'2 7.4
2017-Apr-24 00:30S 00°19' W 047°50'6 7.4
2017-Apr-23 23:42S 00°23' W 047°54'2 6.8
2017-Apr-23 23:28S 00°25' W 047°55'3 6.5
2017-Apr-23 23:00S 00°27' W 047°57'4 5.5
2017-Apr-23 22:18S 00°30' W 047°60'2 4.8
2017-Apr-23 21:54S 00°31' W 048°01'42 6.9
2017-Apr-23 15:54S 01°02' W 048°28'  
2017-Apr-19 15:11S 01°27' W 048°30'0 0.0
2017-Apr-19 14:59S 01°27' W 048°30'1 1.1
2017-Apr-19 14:30S 01°26' W 048°30'3 2.3
2017-Apr-19 13:20S 01°24' W 048°30'0 0.0
2017-Apr-19 12:56S 01°24' W 048°30'11 0.6
2017-Apr-18 19:17S 01°13' W 048°28'43 7.0
2017-Apr-18 13:10S 00°36' W 048°07'1 8.5
2017-Apr-18 13:00S 00°35' W 048°06'4 8.1
2017-Apr-18 12:29S 00°32' W 048°03'4 7.7
2017-Apr-18 12:00S 00°30' W 047°60'7 7.8
2017-Apr-18 11:04S 00°25' W 047°55'1 7.1
2017-Apr-18 10:53S 00°24' W 047°54'4 6.9
2017-Apr-18 10:19S 00°23' W 047°50'3 6.8
2017-Apr-18 09:51S 00°23' W 047°47'4 7.1
2017-Apr-18 09:18S 00°23' W 047°43'  
Track history (hours):
 
Tides and Currents Weather Stations Pressure Air Temp Water Temp Dewpoint Dewpoint Depression Visibility Wind Speed Wind Dir Waves Ship Positions

Cisne Branco (Brazil)

Last reported at 2017-Apr-24 00:49 UTC. Time now 2017-Apr-26 15:33 UTC.
Position S 00°17' W 047°49'.

Length 78 m; draft 4.8 m.

Type: Sailing vessel. MMSI: 710428000.

Date/timePositionNaut miles runAvg speedWind from/ knotsBaromVisibWave heightAir tempDewpointWater temp
2017-Apr-24 00:49S 00°17' W 047°49'2 7.4
2017-Apr-24 00:30S 00°19' W 047°50'6 7.4
2017-Apr-23 23:42S 00°23' W 047°54'2 6.8
2017-Apr-23 23:28S 00°25' W 047°55'3 6.5
2017-Apr-23 23:00S 00°27' W 047°57'4 5.5
2017-Apr-23 22:18S 00°30' W 047°60'2 4.8
2017-Apr-23 21:54S 00°31' W 048°01'42 6.9
2017-Apr-23 15:54S 01°02' W 048°28'  
2017-Apr-19 15:11S 01°27' W 048°30'0 0.0
2017-Apr-19 14:59S 01°27' W 048°30'1 1.1
2017-Apr-19 14:30S 01°26' W 048°30'3 2.3
2017-Apr-19 13:20S 01°24' W 048°30'0 0.0
2017-Apr-19 12:56S 01°24' W 048°30'11 0.6
2017-Apr-18 19:17S 01°13' W 048°28'43 7.0
2017-Apr-18 13:10S 00°36' W 048°07'1 8.5
2017-Apr-18 13:00S 00°35' W 048°06'4 8.1
2017-Apr-18 12:29S 00°32' W 048°03'4 7.7
2017-Apr-18 12:00S 00°30' W 047°60'7 7.8
2017-Apr-18 11:04S 00°25' W 047°55'1 7.1
2017-Apr-18 10:53S 00°24' W 047°54'4 6.9
2017-Apr-18 10:19S 00°23' W 047°50'3 6.8
2017-Apr-18 09:51S 00°23' W 047°47'4 7.1
2017-Apr-18 09:18S 00°23' W 047°43'  

Dump ship's entire track history